Weather reports worldwide

Advertisment
Metz-Frescaty, France (7090): temperature & dewpoint: 15.01.2021 06:00:00 - 21.01.2021 06:00:00 (CET)Metz-Frescaty, France (7090): temperature -20cm: 15.01.2021 06:00:00 - 21.01.2021 06:00:00 (CET)Metz-Frescaty, France (7090): wind speed & gusts: 15.01.2021 06:00:00 - 21.01.2021 06:00:00 (CET)Metz-Frescaty, France (7090): wind direction: 15.01.2021 06:00:00 - 21.01.2021 06:00:00 (CET)Metz-Frescaty, France (7090): precipitation: 15.01.2021 06:00:00 - 21.01.2021 06:00:00 (CET)
Date & Time tt [°C] td [°C] tt -20cm [°C] ff [km/h] ff [kn] fx [km/h] fx [kn] dd rr [mm]
21.01.2021 06:00:00 11,2 3,9 4,0 29 15 58 31 S 0,0
21.01.2021 05:00:00 11,2 3,5 3,9 29 16 60 33 SSW 0,0
21.01.2021 04:00:00 11,2 3,2 3,9 31 17 62 33 SSW 0,0
21.01.2021 03:00:00 11,0 2,8 3,7 23 12 45 25 S 0,0
21.01.2021 02:00:00 11,3 2,6 3,7 26 14 57 31 S 0,0
21.01.2021 01:00:00 11,3 2,8 3,7 23 12 49 26 S 0,0
21.01.2021 00:00:00 11,2 2,7 3,7 23 12 49 26 S 0,0
20.01.2021 23:00:00 10,9 3,0 3,7 20 11 44 24 S 0,0
20.01.2021 22:00:00 10,8 3,1 3,5 21 11 47 25 S 0,0
20.01.2021 21:00:00 10,8 3,3 3,4 21 11 47 25 SSW 0,0
20.01.2021 20:00:00 10,7 3,2 3,2 19 10 39 21 SSW 0,0
20.01.2021 19:00:00 10,7 3,2 3,2 19 11 40 21 S 0,0
20.01.2021 18:00:00 10,7 3,5 3,0 16 9 43 23 S 0,0
20.01.2021 17:00:00 10,9 3,7 2,9 16 9 35 19 S 0,0
20.01.2021 16:00:00 11,4 3,7 2,7 23 12 42 23 SSW 0,0
20.01.2021 15:00:00 11,2 4,2 2,7 19 11 41 22 SSW 0,0
20.01.2021 14:00:00 11,7 4,2 2,4 21 11 43 23 SSW 0,0
20.01.2021 13:00:00 10,2 3,7 2,2 17 9 33 18 SSW 0,0
20.01.2021 12:00:00 9,3 3,5 2,2 13 7 29 16 S 0,0
20.01.2021 11:00:00 7,5 2,2 2,0 14 8 31 17 S 0,0
20.01.2021 10:00:00 6,4 1,7 2,0 13 7 25 13 S 0,0
20.01.2021 09:00:00 4,4 0,7 2,0 11 6 25 13 SSE 0,0
20.01.2021 08:00:00 4,2 -0,4 2,2 15 8 31 17 SSE 0,0
20.01.2021 07:00:00 4,3 -1,3 2,2 12 6 24 13 S 0,0
20.01.2021 06:00:00 3,6 -2,2 2,2 13 7 26 14 SSE 0,0
20.01.2021 05:00:00 3,6 -2,4 2,2 15 8 27 15 S 0,0
20.01.2021 04:00:00 3,6 -2,6 2,2 13 7 25 14 S 0,0
20.01.2021 03:00:00 3,5 -2,3 2,2 13 7 23 12 S 0,0
20.01.2021 02:00:00 3,9 -2,1 2,2 10 5 22 12 S 0,0
20.01.2021 01:00:00 2,7 -1,7 2,4 9 5 22 12 SSE 0,0
20.01.2021 00:00:00 2,7 -1,7 2,4 10 6 19 11 SSE 0,0
19.01.2021 23:00:00 2,7 -2,2 2,4 12 6 20 11 SSE 0,0
19.01.2021 22:00:00 2,2 -2,1 2,5 10 5 18 10 SSE 0,0
19.01.2021 21:00:00 1,9 -1,7 2,5 7 4 17 9 S 0,0
19.01.2021 20:00:00 2,5 -1,9 2,5 8 5 19 10 S 0,0
19.01.2021 19:00:00 3,1 -0,9 2,5 12 7 23 12 S 0,0
19.01.2021 18:00:00 3,4 -0,4 2,5 10 5 20 11 S 0,0
19.01.2021 17:00:00 3,7 1,2 2,4 6 4 15 8 SE 0,2
19.01.2021 16:00:00 3,9 1,8 2,4 8 4 26 14 SSW 1,0
19.01.2021 15:00:00 4,2 1,4 2,2 14 8 42 23 SW 0,0
19.01.2021 14:00:00 3,7 1,4 2,2 18 10 41 22 SW 0,2
19.01.2021 13:00:00 3,5 1,0 2,2 24 13 44 24 SW 0,0
19.01.2021 12:00:00 3,2 0,9 2,2 22 12 42 23 SW 0,4
19.01.2021 11:00:00 3,3 0,0 2,2 17 9 40 22 SW 0,4
19.01.2021 10:00:00 3,7 -1,1 2,2 15 8 38 20 SSW 0,0
19.01.2021 09:00:00 3,4 -1,0 2,2 16 9 31 17 SSW 0,0
19.01.2021 08:00:00 3,1 -0,9 2,2 14 8 33 18 SSW 0,0
19.01.2021 07:00:00 2,1 -0,8 2,2 10 5 23 12 S 0,0
19.01.2021 06:00:00 1,7 -0,7 2,2 14 8 24 13 S 0,0
19.01.2021 05:00:00 2,1 -0,5 2,2 9 5 18 10 S 0,0
19.01.2021 04:00:00 2,4 -0,7 2,2 10 6 23 12 S 0,0
19.01.2021 03:00:00 2,5 -0,8 2,2 11 6 27 14 S 0,0
19.01.2021 02:00:00 3,1 -0,7 2,2 15 8 28 15 SSW 0,0
19.01.2021 01:00:00 3,1 -0,5 2,2 12 7 27 14 S 0,0
19.01.2021 00:00:00 3,1 -0,4 2,2 10 5 24 13 S 0,0
18.01.2021 23:00:00 2,9 -0,2 2,2 10 6 22 12 SSW 0,0
18.01.2021 22:00:00 2,6 0,0 2,2 9 5 16 9 S 0,0
18.01.2021 21:00:00 2,8 0,4 2,2 8 4 24 13 S 0,0
18.01.2021 20:00:00 3,6 0,6 2,2 12 7 22 12 S 0,0
18.01.2021 19:00:00 3,8 0,8 2,2 11 6 20 11 SSW 0,0
18.01.2021 18:00:00 3,5 0,5 2,2 5 3 9 5 SSW 0,0
18.01.2021 17:00:00 3,9 0,4 2,2 4 2 16 9 SSW 0,0
18.01.2021 16:00:00 4,3 0,6 2,2 9 5 23 12 SW 0,0
18.01.2021 15:00:00 4,3 0,4 2,2 11 6 28 15 SW 0,0
18.01.2021 14:00:00 4,5 -0,1 2,2 11 6 30 16 SW 0,0
18.01.2021 13:00:00 4,3 -0,1 2,2 11 6 24 13 SSW 0,0
18.01.2021 12:00:00 3,8 0,1 2,0 8 4 18 10 SSW 0,0
18.01.2021 11:00:00 3,3 0,5 2,0 5 3 14 7 SSW 0,0
18.01.2021 10:00:00 3,0 0,4 2,0 6 3 12 6 SW 0,0
18.01.2021 09:00:00 2,4 0,3 2,0 4 2 17 9 WSW 0,0
18.01.2021 08:00:00 2,3 0,4 2,0 8 4 15 8 WSW 0,0
18.01.2021 07:00:00 2,5 0,6 2,0 9 5 18 10 SW 0,0
18.01.2021 06:00:00 2,1 0,5 2,0 4 2 15 8 WNW 0,0
18.01.2021 05:00:00 2,4 0,6 2,0 10 5 16 8 W 0,0
18.01.2021 04:00:00 2,2 0,6 2,0 5 3 20 11 WSW 0,0
18.01.2021 03:00:00 2,7 0,6 2,0 10 6 25 13 WSW 0,0
18.01.2021 02:00:00 2,7 0,6 2,0 16 8 27 15 W 0,0
18.01.2021 01:00:00 2,7 0,4 2,0 12 7 26 14 W 0,0
18.01.2021 00:00:00 2,3 0,2 2,0 12 7 21 11 WSW 0,0
17.01.2021 23:00:00 1,6 0,3 2,0 5 3 11 6 WNW 0,0
17.01.2021 22:00:00 2,1 0,6 2,0 8 5 17 9 W 0,0
17.01.2021 21:00:00 2,4 1,1 2,0 10 5 19 11 W 0,0
17.01.2021 20:00:00 2,4 1,2 2,0 8 4 22 12 W 0,0
17.01.2021 19:00:00 2,6 1,4 2,0 11 6 26 14 W 0,0
17.01.2021 18:00:00 2,7 1,5 2,0 14 8 29 15 W 0,0
17.01.2021 17:00:00 2,8 1,6 2,0 14 8 26 14 W 0,0
17.01.2021 16:00:00 2,9 1,7 2,0 14 8 24 13 W 0,0
17.01.2021 15:00:00 3,1 1,8 2,0 9 5 25 14 WNW 0,0
17.01.2021 14:00:00 3,0 1,7 2,0 16 9 27 15 W 0,0
17.01.2021 13:00:00 2,7 1,7 2,0 11 6 20 11 W 0,0
17.01.2021 12:00:00 2,4 1,5 2,0 5 3 18 10 W 0,0
17.01.2021 11:00:00 1,9 1,0 2,0 8 4 17 9 W 0,0
17.01.2021 10:00:00 1,6 0,9 2,0 5 3 14 7 W 0,0
17.01.2021 09:00:00 1,1 0,5 2,0 0 0 8 4 N 0,2
17.01.2021 08:00:00 1,0 0,4 2,0 5 3 14 7 WSW 0,0
17.01.2021 07:00:00 0,7 0,3 2,0 9 5 14 7 W 0,0
17.01.2021 06:00:00 0,2 -0,1 2,0 3 2 11 6 SW 0,0
17.01.2021 05:00:00 -0,4 -0,8 2,0 3 1 9 5 W 0,0
17.01.2021 04:00:00 -1,5 -1,9 2,0 0 0 3 2 N 0,2
17.01.2021 03:00:00 -1,6 -2,0 2,0 0 0 4 2 N 0,0
17.01.2021 02:00:00 -1,6 -2,0 2,0 0 0 6 3 N 0,0
17.01.2021 01:00:00 -1,8 -2,2 2,0 4 2 8 5 ESE 0,0
17.01.2021 00:00:00 -2,0 -2,4 2,2 5 3 13 7 SSE 0,0
16.01.2021 23:00:00 -2,2 -2,6 2,0 8 4 14 8 SSE 0,0
16.01.2021 22:00:00 -2,4 -2,8 2,0 10 5 14 8 SSE 0,2
16.01.2021 21:00:00 -2,4 -2,8 2,0 6 4 12 6 SSE 0,8
16.01.2021 20:00:00 -2,8 -3,3 2,2 5 3 9 5 SSE 0,8
16.01.2021 19:00:00 -3,9 -4,6 2,2 3 2 9 5 S 0,2
16.01.2021 18:00:00 -4,5 -5,3 2,2 4 2 10 6 S 0,0
16.01.2021 17:00:00 -5,0 -5,8 2,2 4 2 10 5 SSE 0,0
16.01.2021 16:00:00 -5,3 -6,1 2,2 6 3 14 7 S 0,0
16.01.2021 15:00:00 -6,2 -7,3 2,2 5 3 12 6 S 0,0
16.01.2021 14:00:00 -7,1 -8,3 2,2 5 3 9 5 SSE 0,0
16.01.2021 13:00:00 -8,1 -9,5 2,2 6 3 9 5 SSE 0,0
16.01.2021 12:00:00 -8,8 -10,3 2,2 3 2 7 4 SSE 0,0
16.01.2021 11:00:00 -10,6 -12,1 2,2 4 2 7 4 S 0,0
16.01.2021 10:00:00 -12,4 -14,0 2,2 3 1 6 3 SSE 0,0
16.01.2021 09:00:00 -13,1 -14,7 2,2 4 2 6 3 SSE 0,0
16.01.2021 08:00:00 -12,7 -14,3 2,2 3 1 5 3 SSE 0,0
16.01.2021 07:00:00 -13,0 -14,7 2,2 0 0 4 2 N 0,0
16.01.2021 06:00:00 -13,2 -14,6 2,2 3 2 5 3 S 0,0
16.01.2021 05:00:00 -12,8 -14,2 2,2 0 0 5 3 N 0,0
16.01.2021 04:00:00 -12,2 -13,5 2,2 0 0 4 2 N 0,0
16.01.2021 03:00:00 -12,2 -13,6 2,2 3 2 5 3 SSE 0,0
16.01.2021 02:00:00 -11,3 -12,3 2,2 3 2 4 2 SE 0,0
16.01.2021 01:00:00 -12,0 -13,4 2,2 2 1 5 3 SSE 0,0
16.01.2021 00:00:00 -10,8 -12,3 2,4 0 0 3 1 N 0,0
15.01.2021 23:00:00 -8,9 -10,0 2,4 0 0 3 2 N 0,0
15.01.2021 22:00:00 -8,2 -9,4 2,4 0 0 5 3 N 0,0
15.01.2021 21:00:00 -6,0 -6,8 2,4 3 2 8 4 NW 0,0
15.01.2021 20:00:00 -5,3 -6,4 2,4 0 0 8 5 N 0,0
15.01.2021 19:00:00 -3,8 -4,9 2,4 5 3 8 5 WNW 0,0
15.01.2021 18:00:00 -2,4 -4,3 2,4 4 2 8 5 NW 0,0
15.01.2021 17:00:00 -0,8 -3,8 2,4 4 2 13 7 NW 0,0
15.01.2021 16:00:00 0,8 -3,9 2,4 8 4 18 10 N 0,0
15.01.2021 15:00:00 1,0 -3,5 2,4 8 5 27 14 N 0,0
15.01.2021 14:00:00 0,8 -3,1 2,5 10 5 26 14 N 0,0
15.01.2021 13:00:00 0,1 -3,5 2,5 16 8 27 15 N 0,0
15.01.2021 12:00:00 -0,6 -3,8 2,4 11 6 22 12 N 0,0
15.01.2021 11:00:00 -1,6 -4,1 2,5 13 7 23 12 N 0,0
15.01.2021 10:00:00 -1,9 -4,2 2,5 13 7 24 13 N 0,0
15.01.2021 09:00:00 -2,1 -4,1 2,5 14 8 27 14 N 0,0
15.01.2021 08:00:00 -1,9 -4,1 2,5 15 8 24 13 N 0,0
15.01.2021 07:00:00 -2,1 -4,3 2,5 18 10 24 13 NNE 0,0
15.01.2021 06:00:00 -0,8 -3,2 2,5 12 7 29 16 N 0,0

tt = temperature
td = dewpoint
tt -20cm = temperature -20cm
ff = wind speed
fx = gusts
dd = wind direction
rr = precipitation

Next stations